createdAt,value
2022-10-03T04:00:32.693Z,99.99
2022-10-03T04:01:32.664Z,99.99
2022-10-03T04:02:32.718Z,99.99
2022-10-03T04:03:32.609Z,99.99
2022-10-03T04:04:32.597Z,99.99
2022-10-03T04:05:32.595Z,99.99
2022-10-03T04:06:32.584Z,99.99
2022-10-03T04:07:32.561Z,99.99
2022-10-03T04:08:32.556Z,99.99
2022-10-03T04:09:32.541Z,99.99
2022-10-03T04:10:32.528Z,99.99
2022-10-03T04:11:38.030Z,99.99
2022-10-03T04:12:32.507Z,99.99
2022-10-03T04:13:32.493Z,99.99
2022-10-03T04:14:32.481Z,99.99
2022-10-03T04:15:32.469Z,99.99
2022-10-03T04:16:32.541Z,99.99
2022-10-03T04:17:32.466Z,99.99
2022-10-03T04:18:32.442Z,99.99
2022-10-03T04:19:32.426Z,99.99
2022-10-03T04:20:32.416Z,99.99
2022-10-03T04:21:32.412Z,99.99
2022-10-03T04:22:37.418Z,99.99
2022-10-03T04:23:32.414Z,99.99
2022-10-03T04:24:32.368Z,99.99
2022-10-03T04:25:32.356Z,99.99
2022-10-03T04:26:32.358Z,99.99
2022-10-03T04:27:32.336Z,99.99
2022-10-03T04:28:32.399Z,99.99
2022-10-03T04:29:32.314Z,99.99
2022-10-03T04:30:32.299Z,99.99
2022-10-03T04:31:32.363Z,99.99
2022-10-03T04:32:32.297Z,99.99
2022-10-03T04:33:37.299Z,99.99
2022-10-03T04:34:32.827Z,99.99
2022-10-03T04:35:32.240Z,99.99
2022-10-03T04:36:32.245Z,99.99
2022-10-03T04:37:32.219Z,99.99
2022-10-03T04:38:32.215Z,99.99
2022-10-03T04:39:32.194Z,99.99
2022-10-03T04:40:32.193Z,99.99
2022-10-03T04:41:32.201Z,99.99
2022-10-03T04:42:32.163Z,99.99
2022-10-03T04:43:32.148Z,99.99
2022-10-03T04:44:37.162Z,99.99
2022-10-03T04:45:32.172Z,99.99
2022-10-03T04:46:32.139Z,99.99
2022-10-03T04:47:32.104Z,99.99
2022-10-03T04:48:32.118Z,99.99
2022-10-03T04:49:32.081Z,99.99
2022-10-03T04:50:32.076Z,99.99
2022-10-03T04:51:32.069Z,99.99
2022-10-03T04:52:32.053Z,99.99
2022-10-03T04:53:32.038Z,99.99
2022-10-03T04:54:32.029Z,99.99
2022-10-03T04:55:37.035Z,99.99
2022-10-03T04:56:32.015Z,99.99
2022-10-03T04:57:31.994Z,99.99
2022-10-03T04:58:31.978Z,99.99
2022-10-03T04:59:31.966Z,99.99
2022-10-03T05:00:31.963Z,99.99
2022-10-03T05:01:32.010Z,99.99
2022-10-03T05:02:32.006Z,99.99
2022-10-03T05:03:31.926Z,99.99
2022-10-03T05:04:31.934Z,99.99
2022-10-03T05:05:31.898Z,99.99
2022-10-03T05:06:36.923Z,99.99
2022-10-03T05:07:31.873Z,99.99
2022-10-03T05:08:31.863Z,99.99
2022-10-03T05:09:31.850Z,99.99
2022-10-03T05:10:31.842Z,99.99
2022-10-03T05:11:31.839Z,99.99
2022-10-03T05:12:31.818Z,99.99
2022-10-03T05:13:31.808Z,99.99
2022-10-03T05:14:31.798Z,99.99
2022-10-03T05:15:31.782Z,99.99
2022-10-03T05:16:31.874Z,99.99
2022-10-03T05:17:36.782Z,99.99
2022-10-03T05:18:31.754Z,99.99
2022-10-03T05:19:31.737Z,99.99
2022-10-03T05:20:31.748Z,99.99
2022-10-03T05:21:31.724Z,99.99
2022-10-03T05:22:31.704Z,99.99
2022-10-03T05:23:31.690Z,99.99
2022-10-03T05:24:31.681Z,99.99
2022-10-03T05:25:31.741Z,99.99
2022-10-03T05:26:44.713Z,99.99
2022-10-03T05:27:32.644Z,99.99
2022-10-03T05:28:36.656Z,99.99
2022-10-03T05:29:31.623Z,99.99
2022-10-03T05:30:31.618Z,99.99
2022-10-03T05:31:31.653Z,99.99
2022-10-03T05:32:31.592Z,99.99
2022-10-03T05:33:31.581Z,99.99
2022-10-03T05:34:31.569Z,99.99
2022-10-03T05:35:31.566Z,99.99
2022-10-03T05:36:31.574Z,99.99
2022-10-03T05:37:31.531Z,99.99
2022-10-03T05:38:31.521Z,99.99
2022-10-03T05:39:36.533Z,99.99
2022-10-03T05:40:31.498Z,99.99
2022-10-03T05:41:31.497Z,99.99
2022-10-03T05:42:31.476Z,99.99
2022-10-03T05:43:31.462Z,99.99
2022-10-03T05:44:31.454Z,99.99
2022-10-03T05:45:31.499Z,99.99
2022-10-03T05:46:31.440Z,99.99
2022-10-03T05:47:31.415Z,99.99
2022-10-03T05:48:31.407Z,99.99
2022-10-03T05:49:31.393Z,99.99
2022-10-03T05:50:36.410Z,99.99
2022-10-03T05:51:31.381Z,99.99
2022-10-03T05:52:31.379Z,99.99
2022-10-03T05:53:31.350Z,99.99
2022-10-03T05:54:31.337Z,99.99
2022-10-03T05:55:31.327Z,99.99
2022-10-03T05:56:31.327Z,99.99
2022-10-03T05:57:31.306Z,99.99
2022-10-03T05:58:31.293Z,99.99
2022-10-03T05:59:31.277Z,99.99
2022-10-03T06:00:31.270Z,99.99
2022-10-03T06:01:36.716Z,99.99
2022-10-03T06:02:31.350Z,99.99
2022-10-03T06:03:31.274Z,99.99
2022-10-03T06:04:31.222Z,99.99
2022-10-03T06:05:31.210Z,99.99
2022-10-03T06:06:31.199Z,99.99
2022-10-03T06:07:31.206Z,99.99
2022-10-03T06:08:31.213Z,99.99
2022-10-03T06:09:31.162Z,99.99
2022-10-03T06:10:31.154Z,99.99
2022-10-03T06:11:31.143Z,99.99
2022-10-03T06:12:36.179Z,99.99
2022-10-03T06:13:31.119Z,99.99
2022-10-03T06:14:31.111Z,99.99
2022-10-03T06:15:31.212Z,99.99
2022-10-03T06:16:31.128Z,99.99
2022-10-03T06:17:31.083Z,99.99
2022-10-03T06:18:31.062Z,99.99
2022-10-03T06:19:31.051Z,99.99
2022-10-03T06:20:31.050Z,99.99
2022-10-03T06:21:31.026Z,99.99
2022-10-03T06:22:31.026Z,99.99
2022-10-03T06:23:36.042Z,99.99
2022-10-03T06:24:30.996Z,99.99
2022-10-03T06:25:31.014Z,99.99
2022-10-03T06:26:30.985Z,99.99
2022-10-03T06:27:30.968Z,99.99
2022-10-03T06:28:31.111Z,99.99
2022-10-03T06:29:30.945Z,99.99
2022-10-03T06:30:31.017Z,99.99
2022-10-03T06:31:32.173Z,99.99
2022-10-03T06:32:30.913Z,99.99
2022-10-03T06:33:30.892Z,99.99
2022-10-03T06:34:35.912Z,99.99
2022-10-03T06:35:30.865Z,99.99
2022-10-03T06:36:30.857Z,99.99
2022-10-03T06:37:30.859Z,99.99
2022-10-03T06:38:30.833Z,99.99
2022-10-03T06:39:30.838Z,99.99
2022-10-03T06:40:30.870Z,99.99
2022-10-03T06:41:30.817Z,99.99
2022-10-03T06:42:30.789Z,99.99
2022-10-03T06:43:30.807Z,99.99
2022-10-03T06:44:30.769Z,99.99
2022-10-03T06:45:35.773Z,99.99
2022-10-03T06:46:30.829Z,99.99
2022-10-03T06:47:30.739Z,99.99
2022-10-03T06:48:30.718Z,99.99
2022-10-03T06:49:30.706Z,99.99
2022-10-03T06:50:30.697Z,99.99
2022-10-03T06:51:30.913Z,99.99
2022-10-03T06:52:51.671Z,99.99
2022-10-03T06:53:30.660Z,99.99
2022-10-03T06:54:30.658Z,99.99
2022-10-03T06:55:30.670Z,99.99
2022-10-03T06:56:35.660Z,99.99
2022-10-03T06:57:30.617Z,99.99
2022-10-03T06:58:30.651Z,99.99
2022-10-03T06:59:30.594Z,99.99
2022-10-03T07:00:30.582Z,99.99
2022-10-03T07:01:30.638Z,99.99
2022-10-03T07:02:30.647Z,99.99
2022-10-03T07:03:30.552Z,99.99
2022-10-03T07:04:30.538Z,99.99
2022-10-03T07:05:30.524Z,99.99
2022-10-03T07:06:30.828Z,99.99
2022-10-03T07:07:35.626Z,99.99
2022-10-03T07:08:30.492Z,99.99
2022-10-03T07:09:30.485Z,99.99
2022-10-03T07:10:30.469Z,99.99
2022-10-03T07:11:30.477Z,99.99
2022-10-03T07:12:30.456Z,99.99
2022-10-03T07:13:30.448Z,99.99
2022-10-03T07:14:30.425Z,99.99
2022-10-03T07:15:51.091Z,99.99
2022-10-03T07:16:31.489Z,99.99
2022-10-03T07:17:30.399Z,99.99
2022-10-03T07:18:35.404Z,99.99
2022-10-03T07:19:30.365Z,99.99
2022-10-03T07:20:30.357Z,99.99
2022-10-03T07:21:30.345Z,99.99
2022-10-03T07:22:30.346Z,99.99
2022-10-03T07:23:30.320Z,99.99
2022-10-03T07:24:30.318Z,99.99
2022-10-03T07:25:30.309Z,99.99
2022-10-03T07:26:30.295Z,99.99
2022-10-03T07:27:30.325Z,99.99
2022-10-03T07:28:30.511Z,99.99
2022-10-03T07:29:35.274Z,99.99
2022-10-03T07:30:30.248Z,99.99
2022-10-03T07:31:30.341Z,99.99
2022-10-03T07:32:30.242Z,99.99
2022-10-03T07:33:30.244Z,99.99
2022-10-03T07:34:30.204Z,99.99
2022-10-03T07:35:30.234Z,99.99
2022-10-03T07:36:30.221Z,99.99
2022-10-03T07:37:30.173Z,99.99
2022-10-03T07:38:30.177Z,99.99
2022-10-03T07:39:30.170Z,99.99
2022-10-03T07:40:35.152Z,99.99
2022-10-03T07:41:30.116Z,99.99
2022-10-03T07:42:30.116Z,99.99
2022-10-03T07:43:30.111Z,99.99
2022-10-03T07:44:30.089Z,99.99
2022-10-03T07:45:30.069Z,99.99
2022-10-03T07:46:30.139Z,99.99
2022-10-03T07:47:30.062Z,99.99
2022-10-03T07:48:30.040Z,99.99
2022-10-03T07:49:30.030Z,99.99
2022-10-03T07:50:30.015Z,99.99
2022-10-03T07:51:35.023Z,99.99
2022-10-03T07:52:30.009Z,99.99
2022-10-03T07:53:29.979Z,99.99
2022-10-03T07:54:29.970Z,99.99
2022-10-03T07:55:29.963Z,99.99
2022-10-03T07:56:29.950Z,99.76
2022-10-03T07:57:29.948Z,97.41
2022-10-03T07:58:29.926Z,96.95
2022-10-03T07:59:29.935Z,96.48
2022-10-03T08:00:29.900Z,96.48
2022-10-03T08:01:29.900Z,96.69
2022-10-03T08:02:34.964Z,95.67
2022-10-03T08:03:29.933Z,96.79
2022-10-03T08:04:29.854Z,96.59
2022-10-03T08:05:29.843Z,97.40
2022-10-03T08:06:29.832Z,97.81
2022-10-03T08:07:29.822Z,96.34
2022-10-03T08:08:29.818Z,96.64
2022-10-03T08:09:29.800Z,95.32
2022-10-03T08:10:29.792Z,94.76
2022-10-03T08:11:29.777Z,94.35
2022-10-03T08:12:29.764Z,94.30
2022-10-03T08:13:34.792Z,93.89
2022-10-03T08:14:29.748Z,93.99
2022-10-03T08:15:29.803Z,94.09
2022-10-03T08:16:29.727Z,93.59
2022-10-03T08:17:29.822Z,92.93
2022-10-03T08:18:29.707Z,93.13
2022-10-03T08:19:29.687Z,93.24
2022-10-03T08:20:29.676Z,91.81
2022-10-03T08:21:29.791Z,92.83
2022-10-03T08:22:29.753Z,93.33
2022-10-03T08:23:29.692Z,93.74
2022-10-03T08:24:34.652Z,93.54
2022-10-03T08:25:29.626Z,93.90
2022-10-03T08:26:29.611Z,92.68
2022-10-03T08:27:29.604Z,92.68
2022-10-03T08:28:29.683Z,92.74
2022-10-03T08:29:29.575Z,92.07
2022-10-03T08:30:29.569Z,91.16
2022-10-03T08:31:29.629Z,91.46
2022-10-03T08:32:29.542Z,91.66
2022-10-03T08:33:29.603Z,91.16
2022-10-03T08:34:29.519Z,92.07
2022-10-03T08:35:34.532Z,91.87
2022-10-03T08:36:29.496Z,92.84
2022-10-03T08:37:29.488Z,91.83
2022-10-03T08:38:29.486Z,90.70
2022-10-03T08:39:29.469Z,90.34
2022-10-03T08:40:29.483Z,92.27
2022-10-03T08:41:29.446Z,92.58
2022-10-03T08:42:29.436Z,91.87
2022-10-03T08:43:29.433Z,91.97
2022-10-03T08:44:30.635Z,92.64
2022-10-03T08:45:29.399Z,92.44
2022-10-03T08:46:34.470Z,92.80
2022-10-03T08:47:29.377Z,93.31
2022-10-03T08:48:29.385Z,91.68
2022-10-03T08:49:29.354Z,92.49
2022-10-03T08:50:29.342Z,92.45
2022-10-03T08:51:29.330Z,90.92
2022-10-03T08:52:29.319Z,90.22
2022-10-03T08:53:29.322Z,90.42
2022-10-03T08:54:29.302Z,90.62
2022-10-03T08:55:29.289Z,90.72
2022-10-03T08:56:29.307Z,90.42
2022-10-03T08:57:34.323Z,90.01
2022-10-03T08:58:29.268Z,90.62
2022-10-03T08:59:29.304Z,91.43
2022-10-03T09:00:29.420Z,91.13
2022-10-03T09:01:29.298Z,89.87
2022-10-03T09:02:29.392Z,88.75
2022-10-03T09:03:34.322Z,89.46
2022-10-03T09:04:30.186Z,88.13
2022-10-03T09:05:29.180Z,88.18
2022-10-03T09:06:29.166Z,88.63
2022-10-03T09:07:29.156Z,88.63
2022-10-03T09:08:34.179Z,89.07
2022-10-03T09:09:33.131Z,89.99
2022-10-03T09:10:30.139Z,89.44
2022-10-03T09:11:29.107Z,88.93
2022-10-03T09:12:29.184Z,90.25
2022-10-03T09:13:29.110Z,90.25
2022-10-03T09:14:29.079Z,90.16
2022-10-03T09:15:29.060Z,89.85
2022-10-03T09:16:29.155Z,88.93
2022-10-03T09:17:29.047Z,89.14
2022-10-03T09:18:29.070Z,88.93
2022-10-03T09:19:34.091Z,89.30
2022-10-03T09:20:29.009Z,89.05
2022-10-03T09:21:29.710Z,89.26
2022-10-03T09:22:28.986Z,88.44
2022-10-03T09:23:28.980Z,89.05
2022-10-03T09:24:28.986Z,88.24
2022-10-03T09:25:28.973Z,88.75
2022-10-03T09:26:28.988Z,88.60
2022-10-03T09:27:28.924Z,87.29
2022-10-03T09:28:28.986Z,86.37
2022-10-03T09:29:28.901Z,85.86
2022-10-03T09:30:33.907Z,85.70
2022-10-03T09:31:28.908Z,85.70
2022-10-03T09:32:28.863Z,85.70
2022-10-03T09:33:28.877Z,86.41
2022-10-03T09:34:28.881Z,85.80
2022-10-03T09:35:28.837Z,85.70
2022-10-03T09:36:28.887Z,86.10
2022-10-03T09:37:28.807Z,86.71
2022-10-03T09:38:28.825Z,87.53
2022-10-03T09:39:28.786Z,86.98
2022-10-03T09:40:28.785Z,86.77
2022-10-03T09:41:33.865Z,86.98
2022-10-03T09:42:28.746Z,85.86
2022-10-03T09:43:28.748Z,85.66
2022-10-03T09:44:28.730Z,85.46
2022-10-03T09:45:28.715Z,86.37
2022-10-03T09:46:28.756Z,86.68
2022-10-03T09:47:28.694Z,86.47
2022-10-03T09:48:28.735Z,86.33
2022-10-03T09:49:28.793Z,85.31
2022-10-03T09:50:28.714Z,84.70
2022-10-03T09:51:28.651Z,84.70
2022-10-03T09:52:33.658Z,85.01
2022-10-03T09:53:28.638Z,85.72
2022-10-03T09:54:28.609Z,85.27
2022-10-03T09:55:28.609Z,85.27
2022-10-03T09:56:28.651Z,84.36
2022-10-03T09:57:28.582Z,83.75
2022-10-03T09:58:28.575Z,82.80
2022-10-03T09:59:28.579Z,83.31
2022-10-03T10:00:28.550Z,83.17
2022-10-03T10:01:29.376Z,83.98
2022-10-03T10:02:28.523Z,83.33
2022-10-03T10:03:33.602Z,82.82
2022-10-03T10:04:53.264Z,81.10
2022-10-03T10:05:29.516Z,80.73
2022-10-03T10:06:28.605Z,82.05
2022-10-03T10:07:28.463Z,82.15
2022-10-03T10:08:28.464Z,81.78
2022-10-03T10:09:28.442Z,82.25
2022-10-03T10:10:28.662Z,82.96
2022-10-03T10:11:32.889Z,81.85
2022-10-03T10:12:29.409Z,79.25
2022-10-03T10:13:40.017Z,78.03
2022-10-03T10:14:34.406Z,77.01
2022-10-03T10:15:28.373Z,77.32
2022-10-03T10:16:28.430Z,77.32
2022-10-03T10:17:28.357Z,78.23
2022-10-03T10:18:28.337Z,79.14
2022-10-03T10:19:28.338Z,78.44
2022-10-03T10:20:28.319Z,78.23
2022-10-03T10:21:28.309Z,80.26
2022-10-03T10:22:28.313Z,80.16
2022-10-03T10:23:28.302Z,79.65
2022-10-03T10:24:28.299Z,79.75
2022-10-03T10:25:33.287Z,79.75
2022-10-03T10:26:29.522Z,80.66
2022-10-03T10:27:28.265Z,79.96
2022-10-03T10:28:28.351Z,77.52
2022-10-03T10:29:28.870Z,78.23
2022-10-03T10:30:28.200Z,78.67
2022-10-03T10:31:28.348Z,78.17
2022-10-03T10:32:28.178Z,78.17
2022-10-03T10:33:28.185Z,77.86
2022-10-03T10:34:28.168Z,77.72
2022-10-03T10:35:28.153Z,78.37
2022-10-03T10:36:33.156Z,77.66
2022-10-03T10:37:28.122Z,77.25
2022-10-03T10:38:28.132Z,74.51
2022-10-03T10:39:28.117Z,72.78
2022-10-03T10:40:28.093Z,72.28
2022-10-03T10:41:28.079Z,72.08
2022-10-03T10:42:28.074Z,71.97
2022-10-03T10:43:28.055Z,72.45
2022-10-03T10:44:28.054Z,72.14
2022-10-03T10:45:28.070Z,73.66
2022-10-03T10:46:28.077Z,72.55
2022-10-03T10:47:33.031Z,73.77
2022-10-03T10:48:28.004Z,73.73
2022-10-03T10:49:27.996Z,71.50
2022-10-03T10:50:27.977Z,71.88
2022-10-03T10:51:27.972Z,70.65
2022-10-03T10:52:27.958Z,70.76
2022-10-03T10:53:27.955Z,70.62
2022-10-03T10:54:27.965Z,70.69
2022-10-03T10:55:27.918Z,70.72
2022-10-03T10:56:27.906Z,69.98
2022-10-03T10:57:27.895Z,71.13
2022-10-03T10:58:32.909Z,71.53
2022-10-03T10:59:27.884Z,70.01
2022-10-03T11:00:27.913Z,70.42
2022-10-03T11:01:27.856Z,70.72
2022-10-03T11:02:27.844Z,70.21
2022-10-03T11:03:27.830Z,69.61
2022-10-03T11:04:27.910Z,70.01
2022-10-03T11:05:27.806Z,70.35
2022-10-03T11:06:27.791Z,70.21
2022-10-03T11:07:27.783Z,69.81
2022-10-03T11:08:27.771Z,70.65
2022-10-03T11:09:32.836Z,70.45
2022-10-03T11:10:27.750Z,70.52
2022-10-03T11:11:27.736Z,70.62
2022-10-03T11:12:27.726Z,70.52
2022-10-03T11:13:31.069Z,71.53
2022-10-03T11:14:28.713Z,71.13
2022-10-03T11:15:27.691Z,70.52
2022-10-03T11:16:27.788Z,70.65
2022-10-03T11:17:27.673Z,70.05
2022-10-03T11:18:27.665Z,70.35
2022-10-03T11:19:27.670Z,70.25
2022-10-03T11:20:32.655Z,70.48
2022-10-03T11:21:27.632Z,71.57
2022-10-03T11:22:27.608Z,70.21
2022-10-03T11:23:27.600Z,69.61
2022-10-03T11:24:27.601Z,70.08
2022-10-03T11:25:27.608Z,69.95
2022-10-03T11:26:27.573Z,69.31
2022-10-03T11:27:27.557Z,67.86
2022-10-03T11:28:27.621Z,67.89
2022-10-03T11:29:27.556Z,66.47
2022-10-03T11:30:27.529Z,67.82
2022-10-03T11:31:32.558Z,67.11
2022-10-03T11:32:27.496Z,67.45
2022-10-03T11:33:27.489Z,68.36
2022-10-03T11:34:27.474Z,67.76
2022-10-03T11:35:27.480Z,66.84
2022-10-03T11:36:27.452Z,66.77
2022-10-03T11:37:27.441Z,66.47
2022-10-03T11:38:27.430Z,66.97
2022-10-03T11:39:27.425Z,67.48
2022-10-03T11:40:27.426Z,67.89
2022-10-03T11:41:27.421Z,67.38
2022-10-03T11:42:32.404Z,68.40
2022-10-03T11:43:27.374Z,68.49
2022-10-03T11:44:27.373Z,69.20
2022-10-03T11:45:27.412Z,69.20
2022-10-03T11:46:27.346Z,68.80
2022-10-03T11:47:27.350Z,69.00
2022-10-03T11:48:27.314Z,69.71
2022-10-03T11:49:27.316Z,69.81
2022-10-03T11:50:27.294Z,69.92
2022-10-03T11:51:27.287Z,70.72
2022-10-03T11:52:27.290Z,70.93
2022-10-03T11:53:32.285Z,69.71
2022-10-03T11:54:31.618Z,70.12
2022-10-03T11:55:28.236Z,70.01
2022-10-03T11:56:27.225Z,70.52
2022-10-03T11:57:27.279Z,70.72
2022-10-03T11:58:27.204Z,70.62
2022-10-03T11:59:27.206Z,70.42
2022-10-03T12:00:27.179Z,72.14
2022-10-03T12:01:27.168Z,71.84
2022-10-03T12:02:27.194Z,71.84
2022-10-03T12:03:27.227Z,70.62
2022-10-03T12:04:32.165Z,70.62
2022-10-03T12:05:27.123Z,72.04
2022-10-03T12:06:27.111Z,69.92
2022-10-03T12:07:27.101Z,70.62
2022-10-03T12:08:27.119Z,70.21
2022-10-03T12:09:27.097Z,70.59
2022-10-03T12:10:27.065Z,70.59
2022-10-03T12:11:27.058Z,70.59
2022-10-03T12:12:27.048Z,70.69
2022-10-03T12:13:27.054Z,70.18
2022-10-03T12:14:27.032Z,70.08
2022-10-03T12:15:32.058Z,69.48
2022-10-03T12:16:27.029Z,69.14
2022-10-03T12:17:27.109Z,69.44
2022-10-03T12:18:26.975Z,69.41
2022-10-03T12:19:26.975Z,69.58
2022-10-03T12:20:26.952Z,67.90
2022-10-03T12:21:26.939Z,66.02
2022-10-03T12:22:26.931Z,64.75
2022-10-03T12:23:26.917Z,64.07
2022-10-03T12:24:26.921Z,64.87
2022-10-03T12:25:26.899Z,64.28
2022-10-03T12:26:31.907Z,62.66
2022-10-03T12:27:26.871Z,62.37
2022-10-03T12:28:26.898Z,60.98
2022-10-03T12:29:26.883Z,61.52
2022-10-03T12:30:26.847Z,63.67
2022-10-03T12:31:26.928Z,63.67
2022-10-03T12:32:26.820Z,64.27
2022-10-03T12:33:26.803Z,64.50
2022-10-03T12:34:26.805Z,64.40
2022-10-03T12:35:26.781Z,64.13
2022-10-03T12:36:26.774Z,64.56
2022-10-03T12:37:31.783Z,66.21
2022-10-03T12:38:26.747Z,66.52
2022-10-03T12:39:26.759Z,68.33
2022-10-03T12:40:26.727Z,67.12
2022-10-03T12:41:26.712Z,66.61
2022-10-03T12:42:26.708Z,66.11
2022-10-03T12:43:26.690Z,66.21
2022-10-03T12:44:26.684Z,66.55
2022-10-03T12:45:26.707Z,65.26
2022-10-03T12:46:26.723Z,66.67
2022-10-03T12:47:50.628Z,66.38
2022-10-03T12:48:32.652Z,67.01
2022-10-03T12:49:26.621Z,67.22
2022-10-03T12:50:26.625Z,68.13
2022-10-03T12:51:26.601Z,67.52
2022-10-03T12:52:26.591Z,67.22
2022-10-03T12:53:26.576Z,66.50
2022-10-03T12:54:26.922Z,66.61
2022-10-03T12:55:26.562Z,66.13
2022-10-03T12:56:26.542Z,66.33
2022-10-03T12:57:26.594Z,66.13
2022-10-03T12:58:26.521Z,66.74
2022-10-03T12:59:31.551Z,67.55
2022-10-03T13:00:26.497Z,67.96
2022-10-03T13:01:26.585Z,67.76
2022-10-03T13:02:26.543Z,67.85
2022-10-03T13:03:26.461Z,67.14
2022-10-03T13:04:26.455Z,66.64
2022-10-03T13:05:26.457Z,67.65
2022-10-03T13:06:44.544Z,66.94
2022-10-03T13:07:27.416Z,67.65
2022-10-03T13:08:26.408Z,66.94
2022-10-03T13:09:26.396Z,67.65
2022-10-03T13:10:31.419Z,68.56
2022-10-03T13:11:26.374Z,68.36
2022-10-03T13:12:27.914Z,67.45
2022-10-03T13:13:26.347Z,67.85
2022-10-03T13:14:26.339Z,67.11
2022-10-03T13:15:26.469Z,66.94
2022-10-03T13:16:26.315Z,66.91
2022-10-03T13:17:26.327Z,66.50
2022-10-03T13:18:26.293Z,66.41
2022-10-03T13:19:26.284Z,66.00
2022-10-03T13:20:26.280Z,64.69
2022-10-03T13:21:45.478Z,65.29
2022-10-03T13:22:27.252Z,66.30
2022-10-03T13:23:26.236Z,65.29
2022-10-03T13:24:26.225Z,64.48
2022-10-03T13:25:26.223Z,64.58
2022-10-03T13:26:26.203Z,64.38
2022-10-03T13:27:26.190Z,64.76
2022-10-03T13:28:26.243Z,64.65
2022-10-03T13:29:26.168Z,64.35
2022-10-03T13:30:26.177Z,65.06
2022-10-03T13:31:26.199Z,64.35
2022-10-03T13:32:31.176Z,64.62
2022-10-03T13:33:26.124Z,63.01
2022-10-03T13:34:26.113Z,64.25
2022-10-03T13:35:26.132Z,64.02
2022-10-03T13:36:26.093Z,64.93
2022-10-03T13:37:26.080Z,64.93
2022-10-03T13:38:26.070Z,65.53
2022-10-03T13:39:26.061Z,63.58
2022-10-03T13:40:26.059Z,65.33
2022-10-03T13:41:26.035Z,65.00
2022-10-03T13:42:26.027Z,64.59
2022-10-03T13:43:31.033Z,65.03
2022-10-03T13:44:26.002Z,65.50
2022-10-03T13:45:26.010Z,65.81
2022-10-03T13:46:26.084Z,66.41
2022-10-03T13:47:25.975Z,66.61
2022-10-03T13:48:25.977Z,66.82
2022-10-03T13:49:25.946Z,66.72
2022-10-03T13:50:25.944Z,67.43
2022-10-03T13:51:25.930Z,67.12
2022-10-03T13:52:25.911Z,66.92
2022-10-03T13:53:25.898Z,67.22
2022-10-03T13:54:30.910Z,67.66
2022-10-03T13:55:25.892Z,67.25
2022-10-03T13:56:25.865Z,67.35
2022-10-03T13:57:25.854Z,66.85
2022-10-03T13:58:25.842Z,67.66
2022-10-03T13:59:25.831Z,66.35
2022-10-03T14:00:25.832Z,66.75
2022-10-03T14:01:25.852Z,66.44
2022-10-03T14:02:25.826Z,67.18
2022-10-03T14:03:25.789Z,67.29
2022-10-03T14:04:25.793Z,67.39
2022-10-03T14:05:30.797Z,66.67
2022-10-03T14:06:25.752Z,65.97
2022-10-03T14:07:25.751Z,66.55
2022-10-03T14:08:25.756Z,65.94
2022-10-03T14:09:25.729Z,66.24
2022-10-03T14:10:25.708Z,65.94
2022-10-03T14:11:25.705Z,66.14
2022-10-03T14:12:43.905Z,66.04
2022-10-03T14:13:26.703Z,65.03
2022-10-03T14:14:25.664Z,65.73
2022-10-03T14:15:25.653Z,64.96
2022-10-03T14:16:30.672Z,66.38
2022-10-03T14:17:25.628Z,66.04
2022-10-03T14:18:25.660Z,65.53
2022-10-03T14:19:25.604Z,65.23
2022-10-03T14:20:25.627Z,65.33
2022-10-03T14:21:25.592Z,64.22
2022-10-03T14:22:25.599Z,65.43
2022-10-03T14:23:25.560Z,64.62
2022-10-03T14:24:25.551Z,64.96
2022-10-03T14:25:25.542Z,64.93
2022-10-03T14:26:25.537Z,64.76
2022-10-03T14:27:30.535Z,65.64
2022-10-03T14:28:25.561Z,64.93
2022-10-03T14:29:25.490Z,64.62
2022-10-03T14:30:25.483Z,64.32
2022-10-03T14:31:25.496Z,64.52
2022-10-03T14:32:46.143Z,64.83
2022-10-03T14:33:26.446Z,64.73
2022-10-03T14:34:25.435Z,64.52
2022-10-03T14:35:25.424Z,64.73
2022-10-03T14:36:25.487Z,65.33
2022-10-03T14:37:25.404Z,64.83
2022-10-03T14:38:30.411Z,64.42
2022-10-03T14:39:25.383Z,64.22
2022-10-03T14:40:25.368Z,64.83
2022-10-03T14:41:25.370Z,64.52
2022-10-03T14:42:25.350Z,64.73
2022-10-03T14:43:25.334Z,63.51
2022-10-03T14:44:25.327Z,64.35
2022-10-03T14:45:25.310Z,64.76
2022-10-03T14:46:25.308Z,64.42
2022-10-03T14:47:25.289Z,64.76
2022-10-03T14:48:25.281Z,65.43
2022-10-03T14:49:59.899Z,64.83
2022-10-03T14:50:26.254Z,64.22
2022-10-03T14:51:25.250Z,64.62
2022-10-03T14:52:25.288Z,64.76
2022-10-03T14:53:25.217Z,64.42
2022-10-03T14:54:25.214Z,64.42
2022-10-03T14:55:29.723Z,65.53
2022-10-03T14:56:26.207Z,64.42
2022-10-03T14:57:25.173Z,64.25
2022-10-03T14:58:25.162Z,63.64
2022-10-03T14:59:25.156Z,64.35
2022-10-03T15:00:30.162Z,64.86
2022-10-03T15:01:25.138Z,64.86
2022-10-03T15:02:25.166Z,64.73
2022-10-03T15:03:25.186Z,64.86
2022-10-03T15:04:25.096Z,66.07
2022-10-03T15:05:25.093Z,66.38
2022-10-03T15:06:25.083Z,66.07
2022-10-03T15:07:25.060Z,65.87
2022-10-03T15:08:25.086Z,66.91
2022-10-03T15:09:25.049Z,66.27
2022-10-03T15:10:25.036Z,66.47
2022-10-03T15:11:30.069Z,66.27
2022-10-03T15:12:25.004Z,66.47
2022-10-03T15:13:25.013Z,65.06
2022-10-03T15:14:24.992Z,65.06
2022-10-03T15:15:24.970Z,65.16
2022-10-03T15:16:25.053Z,64.48
2022-10-03T15:17:24.947Z,65.19
2022-10-03T15:18:24.941Z,64.96
2022-10-03T15:19:24.923Z,66.47
2022-10-03T15:20:24.912Z,66.07
2022-10-03T15:21:24.919Z,66.38
2022-10-03T15:22:29.926Z,65.56
2022-10-03T15:23:24.890Z,66.50
2022-10-03T15:24:25.613Z,67.52
2022-10-03T15:25:24.857Z,67.62
2022-10-03T15:26:24.861Z,68.02
2022-10-03T15:27:24.836Z,68.13
2022-10-03T15:28:24.901Z,68.63
2022-10-03T15:29:24.809Z,67.42
2022-10-03T15:30:29.157Z,66.30
2022-10-03T15:31:25.864Z,66.61
2022-10-03T15:32:24.778Z,66.81
2022-10-03T15:33:29.784Z,66.10
2022-10-03T15:34:24.753Z,66.20
2022-10-03T15:35:24.740Z,66.91
2022-10-03T15:36:24.738Z,66.20
2022-10-03T15:37:24.728Z,66.61
2022-10-03T15:38:24.708Z,67.52
2022-10-03T15:39:24.698Z,66.81
2022-10-03T15:40:24.711Z,66.61
2022-10-03T15:41:24.680Z,66.71
2022-10-03T15:42:24.673Z,66.61
2022-10-03T15:43:24.652Z,66.94
2022-10-03T15:44:29.664Z,66.64
2022-10-03T15:45:24.631Z,67.14
2022-10-03T15:46:24.692Z,67.25
2022-10-03T15:47:24.617Z,67.25
2022-10-03T15:48:24.595Z,67.05
2022-10-03T15:49:24.582Z,67.76
2022-10-03T15:50:24.583Z,67.85
2022-10-03T15:51:24.559Z,67.35
2022-10-03T15:52:24.562Z,66.74
2022-10-03T15:53:36.215Z,66.33
2022-10-03T15:54:25.537Z,66.94
2022-10-03T15:55:29.569Z,67.85
2022-10-03T15:56:24.511Z,68.56
2022-10-03T15:57:24.504Z,68.19
2022-10-03T15:58:24.481Z,68.49
2022-10-03T15:59:24.468Z,67.48
2022-10-03T16:00:24.493Z,67.68
2022-10-03T16:01:24.525Z,67.89
2022-10-03T16:02:24.568Z,67.38
2022-10-03T16:03:24.421Z,68.29
2022-10-03T16:04:24.412Z,68.97
2022-10-03T16:05:24.400Z,69.61
2022-10-03T16:06:34.919Z,69.31
2022-10-03T16:07:25.387Z,69.51
2022-10-03T16:08:24.368Z,70.32
2022-10-03T16:09:24.368Z,69.71
2022-10-03T16:10:24.345Z,68.80
2022-10-03T16:11:24.368Z,69.10
2022-10-03T16:12:24.325Z,68.19
2022-10-03T16:13:24.308Z,67.68
2022-10-03T16:14:24.304Z,68.29
2022-10-03T16:15:24.286Z,70.21
2022-10-03T16:16:24.366Z,69.92
2022-10-03T16:17:29.288Z,70.32
2022-10-03T16:18:24.254Z,70.12
2022-10-03T16:19:24.241Z,68.60
2022-10-03T16:20:24.231Z,68.70
2022-10-03T16:21:24.219Z,68.09
2022-10-03T16:22:24.226Z,66.88
2022-10-03T16:23:24.194Z,67.99
2022-10-03T16:24:24.184Z,68.19
2022-10-03T16:25:24.170Z,70.32
2022-10-03T16:26:24.164Z,70.32
2022-10-03T16:27:24.190Z,68.90
2022-10-03T16:28:29.225Z,69.51
2022-10-03T16:29:24.205Z,68.40
2022-10-03T16:30:24.118Z,68.90
2022-10-03T16:31:24.210Z,69.51
2022-10-03T16:32:24.102Z,70.12
2022-10-03T16:33:24.088Z,70.25
2022-10-03T16:34:24.072Z,69.24
2022-10-03T16:35:24.061Z,68.83
2022-10-03T16:36:24.047Z,70.25
2022-10-03T16:37:24.048Z,70.25
2022-10-03T16:38:24.024Z,70.05
2022-10-03T16:39:29.036Z,69.64
2022-10-03T16:40:24.003Z,70.35
2022-10-03T16:41:23.992Z,70.05
2022-10-03T16:42:23.990Z,68.12
2022-10-03T16:43:23.990Z,70.05
2022-10-03T16:44:23.966Z,70.25
2022-10-03T16:45:23.982Z,70.45
2022-10-03T16:46:23.935Z,69.95
2022-10-03T16:47:23.936Z,70.35
2022-10-03T16:48:23.912Z,69.98
2022-10-03T16:49:23.903Z,69.98
2022-10-03T16:50:28.911Z,70.65
2022-10-03T16:51:23.879Z,71.80
2022-10-03T16:52:23.893Z,71.91